Terminal Aerodrome Forecast
Issued by NWS Shreveport, LA

Current Version | Previous Version | Text Only | Print | Product List | Glossary On
Versions: 1 2 3 4 5 6 7 8 9 10 11 12 13 14 15
000
FTUS44 KSHV 021300 AAA
TAFGGG
TAF AMD
KGGG 021350Z 0214/0312 17005KT P6SM SCT020 BKN035
      TEMPO 0214/0216 BKN015 OVC025
     FM022100 20013G20KT P6SM VCTS BKN050CB
      TEMPO 0222/0224 P6SM -TSRA BKN050CB
     FM030300 23014KT 4SM TSRA BR BKN035CB OVC070
     FM030500 28010KT P6SM SCT035 BKN050=

USA.gov is the U.S. government's official web portal to all federal, state and local government web resources and services.